Time;durP1;ratioP1;P1;durP2;ratioP2;P2;SDS_P1;SDS_P2;PMS_P1;PMS_P2;Temp;Humidity;BMP_temperature;BMP_pressure;BME280_temperature;BME280_humidity;BME280_pressure;Samples;Min_cycle;Max_cycle;Signal;HPM_P1;HPM_P2
2021/01/24 00:00:12;;;;;;;83.35;37.38;;;;;;;3.26;82.13;97538.78;1744691;82;21275;-82
2021/01/24 00:02:44;;;;;;;74.30;35.35;;;;;;;3.22;82.19;97535.43;1770974;81;21130;-81
2021/01/24 00:05:13;;;;;;;78.35;34.35;;;;;;;3.19;82.24;97536.34;1741643;81;21280;-82
2021/01/24 00:07:41;;;;;;;76.28;35.88;;;;;;;3.16;82.42;97530.42;1814297;79;21237;-82
2021/01/24 00:10:12;;;;;;;82.45;37.28;;;;;;;3.11;82.64;97521.54;1808568;79;21281;-82
2021/01/24 00:12:40;;;;;;;78.35;34.38;;;;;;;3.10;82.85;97524.13;1812208;79;21241;-81
2021/01/24 00:15:09;;;;;;;91.50;32.28;;;;;;;3.06;82.85;97525.07;1810203;79;21319;-82
2021/01/24 00:17:36;;;;;;;77.55;31.75;;;;;;;3.02;83.01;97529.86;1809170;79;21240;-82
2021/01/24 00:20:08;;;;;;;69.62;31.52;;;;;;;2.99;82.97;97527.77;1747169;82;21274;-82
2021/01/24 00:22:37;;;;;;;66.87;31.10;;;;;;;2.98;83.04;97525.22;1748020;82;21245;-81
2021/01/24 00:25:06;;;;;;;70.55;31.77;;;;;;;2.99;83.19;97517.49;1808986;79;21296;-82
2021/01/24 00:27:39;;;;;;;72.40;33.58;;;;;;;2.99;82.84;97514.92;1748132;82;21146;-82
2021/01/24 00:30:08;;;;;;;77.87;34.60;;;;;;;2.96;83.58;97506.44;1746886;82;21263;-81
2021/01/24 00:32:36;;;;;;;71.90;33.67;;;;;;;3.00;83.50;97505.50;1808261;79;21284;-81
2021/01/24 00:35:08;;;;;;;78.33;34.43;;;;;;;3.02;83.73;97501.63;1808891;79;21233;-81
2021/01/24 00:37:39;;;;;;;74.95;31.82;;;;;;;3.06;83.42;97503.25;1812925;79;21599;-80
2021/01/24 00:40:08;;;;;;;71.55;31.93;;;;;;;3.05;83.56;97498.56;1811300;79;21296;-81
2021/01/24 00:42:37;;;;;;;69.62;29.48;;;;;;;3.12;83.67;97504.40;1810198;79;21215;-81
2021/01/24 00:45:08;;;;;;;77.15;34.60;;;;;;;3.18;83.82;97496.56;1810617;79;21244;-82
2021/01/24 00:47:37;;;;;;;68.40;32.75;;;;;;;3.22;83.62;97496.91;1747764;81;21267;-81
2021/01/24 00:50:07;;;;;;;68.65;30.85;;;;;;;3.23;83.50;97493.92;1764644;81;21295;-81
2021/01/24 00:52:37;;;;;;;72.75;30.95;;;;;;;3.22;83.62;97490.94;1748855;82;21284;-80
2021/01/24 00:55:10;;;;;;;72.90;30.47;;;;;;;3.23;83.50;97499.06;1812121;79;21284;-82
2021/01/24 00:57:38;;;;;;;65.67;29.95;;;;;;;3.21;83.68;97487.53;1748695;82;21269;-81
2021/01/24 01:00:08;;;;;;;69.80;30.80;;;;;;;3.23;83.72;97492.64;1745169;82;21300;-83
2021/01/24 01:02:37;;;;;;;65.95;29.30;;;;;;;3.21;83.77;97496.52;1773490;81;21623;-82
2021/01/24 01:05:07;;;;;;;59.25;28.55;;;;;;;3.20;83.40;97493.53;1742046;82;21867;-81
2021/01/24 01:07:35;;;;;;;62.10;29.18;;;;;;;3.19;83.66;97490.56;1764611;81;21311;-81
2021/01/24 01:10:06;;;;;;;80.45;35.98;;;;;;;3.17;83.32;97489.76;1748004;82;21286;-81
2021/01/24 01:12:34;;;;;;;69.03;29.05;;;;;;;3.11;82.96;97483.02;1810990;79;21265;-82
2021/01/24 01:15:02;;;;;;;62.95;27.70;;;;;;;3.05;82.90;97484.44;1746324;82;21296;-81
2021/01/24 01:17:31;;;;;;;64.03;29.57;;;;;;;2.99;83.04;97487.13;1746551;82;21288;-81
2021/01/24 01:19:59;;;;;;;68.87;28.47;;;;;;;2.87;82.86;97479.24;1807482;79;21265;-80
2021/01/24 01:22:27;;;;;;;63.68;29.80;;;;;;;2.92;83.00;97487.67;1812307;79;21296;-81
2021/01/24 01:24:55;;;;;;;70.17;29.37;;;;;;;2.86;83.29;97484.40;1811178;79;21281;-81
2021/01/24 01:27:23;;;;;;;68.78;29.20;;;;;;;2.82;83.30;97475.91;1808699;79;21264;-81
2021/01/24 01:29:51;;;;;;;68.22;30.57;;;;;;;2.82;83.67;97486.17;1809430;79;21287;-82
2021/01/24 01:32:19;;;;;;;74.95;29.55;;;;;;;2.79;83.94;97481.95;1748196;82;21262;-82
2021/01/24 01:34:48;;;;;;;70.85;30.30;;;;;;;2.76;83.75;97479.88;1764459;81;21158;-82
2021/01/24 01:37:16;;;;;;;73.30;32.00;;;;;;;2.80;84.00;97482.80;1765952;81;21268;-82
2021/01/24 01:39:45;;;;;;;77.30;30.92;;;;;;;2.81;83.89;97472.95;1763461;81;21228;-80
2021/01/24 01:42:14;;;;;;;74.58;29.92;;;;;;;2.83;84.11;97475.49;1765386;81;21339;-81
2021/01/24 01:44:45;;;;;;;69.65;32.67;;;;;;;2.90;84.32;97465.48;1748103;82;21291;-81
2021/01/24 01:47:23;;;;;;;78.00;34.98;;;;;;;2.94;84.10;97466.67;1820521;78;21173;-81
2021/01/24 01:49:57;;;;;;;78.45;34.05;;;;;;;2.98;83.90;97472.59;1828959;78;21279;-80
2021/01/24 01:52:28;;;;;;;83.27;36.03;;;;;;;2.97;84.16;97474.77;1763610;81;21223;-80
2021/01/24 01:54:57;;;;;;;82.50;34.90;;;;;;;2.97;83.95;97473.03;1757998;81;21327;-81
2021/01/24 01:57:26;;;;;;;80.10;36.35;;;;;;;2.97;84.12;97491.45;1762150;81;21157;-83
2021/01/24 01:59:54;;;;;;;79.92;35.48;;;;;;;2.98;83.29;97486.71;1775414;81;21185;-82
2021/01/24 02:02:45;;;;;;;79.12;35.13;;;;;;;2.93;83.79;97484.69;1807781;79;21324;-81
2021/01/24 02:05:31;;;;;;;80.42;33.80;;;;;;;2.94;83.92;97487.66;1799231;79;21225;-82
2021/01/24 02:08:13;;;;;;;74.55;32.85;;;;;;;2.93;83.74;97487.27;1808436;79;21279;-81
2021/01/24 02:11:04;;;;;;;82.22;35.60;;;;;;;2.91;83.90;97484.72;1764132;81;21316;-82
2021/01/24 02:13:43;;;;;;;78.40;33.65;;;;;;;2.89;83.79;97489.04;1754458;80;21267;-82
2021/01/24 02:16:15;;;;;;;85.20;35.30;;;;;;;2.85;83.85;97488.70;1754024;82;21813;-82
2021/01/24 02:18:46;;;;;;;79.58;34.40;;;;;;;2.80;84.52;97482.80;1803877;79;21282;-81
2021/01/24 02:21:31;;;;;;;82.67;35.90;;;;;;;2.82;84.32;97487.45;1803946;79;21260;-82
2021/01/24 02:24:06;;;;;;;89.65;35.80;;;;;;;2.86;84.39;97494.66;1807645;79;21273;-82
2021/01/24 02:27:03;;;;;;;70.95;34.00;;;;;;;2.82;84.69;97500.29;1808236;79;21285;-82
2021/01/24 02:29:42;;;;;;;80.45;34.27;;;;;;;2.85;84.63;97498.12;1762220;81;21606;-82
2021/01/24 02:32:11;;;;;;;74.72;34.55;;;;;;;2.90;84.52;97509.13;1791313;80;21268;-81
2021/01/24 02:34:40;;;;;;;104.70;42.80;;;;;;;2.91;84.83;97506.98;1801689;79;21305;-81
2021/01/24 02:37:08;;;;;;;84.87;36.83;;;;;;;2.95;84.19;97512.02;1802835;79;21308;-81
2021/01/24 02:39:37;;;;;;;110.63;45.58;;;;;;;2.86;84.95;97512.19;1764044;81;21256;-81
2021/01/24 02:42:05;;;;;;;87.62;41.45;;;;;;;2.83;84.87;97516.11;1789445;80;22247;-80
2021/01/24 02:44:33;;;;;;;78.80;36.60;;;;;;;2.85;84.61;97514.81;1759907;81;21144;-79
2021/01/24 02:47:01;;;;;;;73.05;34.75;;;;;;;2.83;84.98;97516.56;1753692;80;21217;-84
2021/01/24 02:49:30;;;;;;;76.00;34.53;;;;;;;2.81;84.83;97523.00;1809882;79;21680;-81
2021/01/24 02:51:59;;;;;;;71.67;33.28;;;;;;;2.83;84.41;97531.52;1744209;82;21304;-81
2021/01/24 02:54:28;;;;;;;71.00;33.42;;;;;;;2.79;85.77;97535.02;1811696;79;21248;-82
2021/01/24 02:56:56;;;;;;;72.97;34.35;;;;;;;2.81;84.39;97535.83;1805811;79;21126;-81
2021/01/24 02:59:24;;;;;;;85.90;37.20;;;;;;;2.79;84.20;97542.27;1747946;82;21287;-82
2021/01/24 03:01:52;;;;;;;78.60;33.45;;;;;;;2.75;84.42;97550.06;1716691;82;21300;-81
2021/01/24 03:04:20;;;;;;;85.53;34.40;;;;;;;2.68;86.04;97539.48;1765492;81;21792;-81
2021/01/24 03:06:49;;;;;;;75.95;32.00;;;;;;;2.70;84.15;97530.05;1719462;82;21316;-81
2021/01/24 03:09:17;;;;;;;82.65;34.10;;;;;;;2.69;85.21;97530.94;1808658;79;21304;-81
2021/01/24 03:11:52;;;;;;;82.90;35.00;;;;;;;2.69;85.63;97523.23;1808506;79;21157;-82
2021/01/24 03:14:24;;;;;;;82.30;35.63;;;;;;;2.69;85.24;97515.54;1811349;77;21245;-82
2021/01/24 03:16:57;;;;;;;79.20;35.73;;;;;;;2.70;84.81;97511.64;1809179;79;21150;-82
2021/01/24 03:19:28;;;;;;;82.50;35.90;;;;;;;2.71;84.81;97516.35;1803994;79;21145;-81
2021/01/24 03:21:57;;;;;;;75.62;34.53;;;;;;;2.71;85.25;97515.07;1804717;79;21146;-80
2021/01/24 03:24:26;;;;;;;76.05;37.08;;;;;;;2.72;85.11;97514.18;1809412;79;21307;-80
2021/01/24 03:26:54;;;;;;;78.12;36.23;;;;;;;2.73;85.39;97502.61;1811076;79;21572;-81
2021/01/24 03:29:22;;;;;;;72.78;34.45;;;;;;;2.77;85.33;97502.12;1806325;79;21621;-80
2021/01/24 03:31:53;;;;;;;80.90;33.63;;;;;;;2.80;85.67;97505.89;1742970;82;21166;-79
2021/01/24 03:34:24;;;;;;;76.72;33.58;;;;;;;2.85;85.51;97509.23;1805951;79;21461;-79
2021/01/24 03:36:54;;;;;;;90.90;38.80;;;;;;;2.90;85.62;97504.83;1807124;79;21204;-80
2021/01/24 03:39:22;;;;;;;75.80;34.92;;;;;;;2.94;85.82;97506.45;1745233;82;21164;-80
2021/01/24 03:41:50;;;;;;;78.15;36.30;;;;;;;2.96;85.71;97509.88;1773430;81;21284;-81
2021/01/24 03:44:17;;;;;;;79.95;35.63;;;;;;;2.99;85.70;97503.82;1759517;81;21328;-80
2021/01/24 03:46:45;;;;;;;79.22;36.93;;;;;;;3.01;86.12;97500.78;1746957;82;21197;-81
2021/01/24 03:49:13;;;;;;;79.25;35.28;;;;;;;3.03;85.88;97505.89;1807069;79;21281;-81
2021/01/24 03:51:43;;;;;;;85.17;36.65;;;;;;;3.03;85.85;97507.17;1744304;82;21303;-79
2021/01/24 03:54:11;;;;;;;79.22;35.10;;;;;;;3.05;85.74;97502.86;1808168;79;21272;-81
2021/01/24 03:56:39;;;;;;;74.03;36.65;;;;;;;3.06;85.77;97508.38;1808229;79;22512;-81
2021/01/24 03:59:10;;;;;;;84.22;37.88;;;;;;;3.05;86.02;97511.39;1804260;79;21463;-80
2021/01/24 04:01:38;;;;;;;77.85;35.73;;;;;;;3.01;85.68;97504.63;1808633;79;21895;-80
2021/01/24 04:04:07;;;;;;;75.90;33.80;;;;;;;2.99;85.68;97502.53;1745252;82;21705;-81
2021/01/24 04:06:35;;;;;;;73.17;31.85;;;;;;;2.93;85.27;97504.78;1807700;79;21280;-80
2021/01/24 04:09:03;;;;;;;72.47;32.08;;;;;;;2.86;85.27;97496.78;1807098;79;21331;-82
2021/01/24 04:11:31;;;;;;;70.50;31.50;;;;;;;2.80;84.70;97498.19;1808858;79;21288;-81
2021/01/24 04:13:59;;;;;;;68.47;30.80;;;;;;;2.72;85.21;97489.80;1807867;79;21686;-80
2021/01/24 04:16:27;;;;;;;69.17;30.48;;;;;;;2.68;85.31;97490.73;1810191;79;22338;-81
2021/01/24 04:18:55;;;;;;;70.37;30.37;;;;;;;2.67;85.24;97491.63;1807137;79;21346;-82
2021/01/24 04:21:22;;;;;;;65.95;30.60;;;;;;;2.63;85.53;97489.55;1746720;81;21318;-81
2021/01/24 04:23:51;;;;;;;72.17;31.90;;;;;;;2.60;85.51;97492.16;1809210;79;21130;-81
2021/01/24 04:26:18;;;;;;;77.15;31.55;;;;;;;2.59;85.16;97488.76;1811463;79;21325;-81
2021/01/24 04:28:46;;;;;;;69.40;32.65;;;;;;;2.57;85.38;97477.68;1806564;79;21296;-82
2021/01/24 04:31:14;;;;;;;64.15;31.52;;;;;;;2.53;85.77;97482.46;1808483;79;21315;-81
2021/01/24 04:33:42;;;;;;;72.27;31.50;;;;;;;2.51;86.08;97480.81;1809910;78;21124;-80
2021/01/24 04:36:10;;;;;;;71.95;32.08;;;;;;;2.52;85.78;97472.22;1806774;79;21706;-81
2021/01/24 04:38:38;;;;;;;76.40;36.20;;;;;;;2.52;85.57;97469.66;1807791;79;21283;-81
2021/01/24 04:41:07;;;;;;;83.85;37.20;;;;;;;2.53;86.06;97476.05;1805233;79;21467;-80
2021/01/24 04:43:35;;;;;;;77.20;36.25;;;;;;;2.56;86.19;97473.86;1743900;82;21176;-80
2021/01/24 04:46:03;;;;;;;82.47;36.93;;;;;;;2.54;85.65;97467.46;1771630;81;21382;-81
2021/01/24 04:48:36;;;;;;;;;;;;;;;2.46;86.12;97477.02;1762320;81;21161;-82
2021/01/24 04:51:14;;;;;;;80.07;36.38;;;;;;;2.42;86.25;97483.53;1757125;81;20308;-80
2021/01/24 04:53:45;;;;;;;83.03;35.65;;;;;;;2.34;86.22;97489.64;1750987;81;21166;-81
2021/01/24 04:56:13;;;;;;;78.22;33.58;;;;;;;2.28;86.49;97494.88;1747078;82;21168;-80
2021/01/24 04:58:42;;;;;;;83.62;35.13;;;;;;;2.21;86.42;97498.85;1726683;83;21181;-80
2021/01/24 05:01:11;;;;;;;95.57;39.35;;;;;;;2.16;86.47;97507.91;1758375;81;21744;-80
2021/01/24 05:03:39;;;;;;;89.40;37.03;;;;;;;2.11;85.63;97506.72;1734207;81;21177;-79
2021/01/24 05:06:08;;;;;;;88.25;38.00;;;;;;;2.10;85.90;97517.83;1757079;81;21613;-80
2021/01/24 05:08:36;;;;;;;85.42;37.13;;;;;;;2.10;85.97;97516.55;1747432;82;21142;-81
2021/01/24 05:11:08;;;;;;;98.27;41.63;;;;;;;2.12;85.64;97525.06;1751367;81;21347;-80
2021/01/24 05:13:36;;;;;;;101.90;40.92;;;;;;;2.11;86.29;97525.95;1743685;82;21146;-81
2021/01/24 05:16:06;;;;;;;88.25;38.92;;;;;;;2.14;86.19;97527.16;1745145;81;21142;-80
2021/01/24 05:18:34;;;;;;;85.03;36.85;;;;;;;2.18;86.49;97535.66;1754569;81;21393;-81
2021/01/24 05:21:04;;;;;;;87.55;37.45;;;;;;;2.21;86.98;97533.47;1735106;82;21318;-81
2021/01/24 05:23:36;;;;;;;96.70;38.42;;;;;;;2.24;86.53;97537.28;1743844;82;21174;-79
2021/01/24 05:26:08;;;;;;;107.92;42.25;;;;;;;2.26;86.56;97537.66;1744997;81;21756;-80
2021/01/24 05:28:46;;;;;;;124.22;50.33;;;;;;;2.30;86.56;97541.85;1753027;81;21169;-78
2021/01/24 05:31:15;;;;;;;101.15;45.60;;;;;;;2.33;86.44;97539.70;1717660;82;21185;-80
2021/01/24 05:33:45;;;;;;;101.95;46.30;;;;;;;2.34;86.42;97555.48;1754641;81;21268;-81
2021/01/24 05:36:13;;;;;;;86.55;41.83;;;;;;;2.34;86.51;97552.91;1752733;81;21292;-80
2021/01/24 05:38:43;;;;;;;85.07;39.27;;;;;;;2.31;86.37;97556.83;1745330;81;21181;-80
2021/01/24 05:41:12;;;;;;;76.42;37.08;;;;;;;2.28;86.27;97555.58;1752815;81;21252;-82
2021/01/24 05:43:43;;;;;;;73.45;34.18;;;;;;;2.26;86.02;97559.45;1746266;82;21170;-80
2021/01/24 05:46:13;;;;;;;80.42;37.25;;;;;;;2.19;85.83;97562.56;1753870;81;21384;-80
2021/01/24 05:48:48;;;;;;;84.13;35.95;;;;;;;2.09;86.45;97562.30;1747436;81;21157;-80
2021/01/24 05:51:16;;;;;;;79.62;33.23;;;;;;;2.03;85.82;97558.55;1761464;81;21628;-79
2021/01/24 05:53:48;;;;;;;81.00;36.45;;;;;;;1.96;87.11;97565.91;1750456;82;21146;-80
2021/01/24 05:56:19;;;;;;;82.62;37.33;;;;;;;1.96;85.81;97559.50;1760861;81;21196;-79
2021/01/24 05:58:55;;;;;;;87.42;37.05;;;;;;;1.88;87.37;97562.63;1762250;81;21156;-78
2021/01/24 06:01:27;;;;;;;73.50;33.83;;;;;;;1.85;88.65;97560.96;1762060;81;21201;-78
2021/01/24 06:03:58;;;;;;;123.05;49.35;;;;;;;1.85;88.34;97562.66;1761615;81;21184;-80
2021/01/24 06:06:26;;;;;;;102.70;43.68;;;;;;;1.87;87.77;97568.60;1759709;81;21661;-79
2021/01/24 06:08:54;;;;;;;114.05;46.08;;;;;;;1.88;88.98;97571.59;1806012;79;21304;-81
2021/01/24 06:11:23;;;;;;;125.67;49.33;;;;;;;1.93;88.61;97576.20;1749670;82;21156;-81
2021/01/24 06:13:55;;;;;;;92.37;40.03;;;;;;;1.97;88.27;97570.19;1761508;81;21173;-79
2021/01/24 06:16:30;;;;;;;88.82;38.92;;;;;;;1.98;87.22;97576.98;1759734;81;21169;-77
2021/01/24 06:19:08;;;;;;;86.50;39.45;;;;;;;1.96;87.53;97578.28;1803083;79;21193;-79
2021/01/24 06:21:40;;;;;;;108.78;43.00;;;;;;;1.93;87.97;97572.35;1799504;79;21158;-78
2021/01/24 06:24:28;;;;;;;106.22;46.45;;;;;;;1.96;87.80;97575.72;1800877;79;21593;-78
2021/01/24 06:26:59;;;;;;;100.97;45.80;;;;;;;1.98;87.66;97573.98;1748020;82;21636;-79
2021/01/24 06:29:29;;;;;;;116.25;48.30;;;;;;;1.96;88.12;97569.75;1759595;81;21184;-78
2021/01/24 06:31:57;;;;;;;101.07;46.20;;;;;;;1.98;87.57;97575.70;1760607;81;21466;-79
2021/01/24 06:34:37;;;;;;;102.30;41.83;;;;;;;1.97;87.59;97577.87;1761523;81;21150;-79
2021/01/24 06:37:22;;;;;;;91.17;42.10;;;;;;;1.96;87.67;97577.45;1797619;79;21158;-79
2021/01/24 06:39:58;;;;;;;106.25;44.83;;;;;;;1.97;87.74;97581.27;1746625;82;21177;-79
2021/01/24 06:42:44;;;;;;;73.20;33.40;;;;;;;1.96;87.46;97587.70;1764100;81;21166;-81
2021/01/24 06:45:32;;;;;;;87.15;34.30;;;;;;;1.93;87.29;97585.16;1758693;81;21164;-78
2021/01/24 06:48:01;;;;;;;73.90;32.93;;;;;;;1.95;87.40;97582.14;1747414;82;21209;-79
2021/01/24 06:50:49;;;;;;;74.40;32.98;;;;;;;1.96;87.50;97574.44;1771686;80;21154;-78
2021/01/24 06:53:27;;;;;;;67.78;30.02;;;;;;;2.01;88.83;97573.52;1776652;80;21176;-80
2021/01/24 06:55:59;;;;;;;80.77;34.15;;;;;;;2.10;90.77;97574.67;1774222;80;21474;-79
2021/01/24 06:58:36;;;;;;;78.35;36.33;;;;;;;2.18;88.65;97565.98;1749016;82;21193;-78
2021/01/24 07:01:31;;;;;;;68.22;29.48;;;;;;;2.30;88.51;97558.97;1763912;81;21165;-79
2021/01/24 07:04:28;;;;;;;66.87;30.68;;;;;;;2.42;89.69;97557.47;1763382;81;21188;-78
2021/01/24 07:07:03;;;;;;;63.63;27.50;;;;;;;2.54;90.43;97566.67;1758825;81;21654;-78
2021/01/24 07:09:37;;;;;;;61.55;28.15;;;;;;;2.67;89.62;97568.61;1733639;82;21173;-79
2021/01/24 07:12:06;;;;;;;74.15;35.08;;;;;;;2.77;90.37;97579.11;1765518;81;21295;-82
2021/01/24 07:14:45;;;;;;;94.20;41.08;;;;;;;2.86;89.98;97576.80;1761678;81;21142;-81
2021/01/24 07:17:16;;;;;;;94.65;38.02;;;;;;;2.88;89.39;97581.02;1763480;81;21252;-81
2021/01/24 07:19:52;;;;;;;88.30;39.58;;;;;;;2.92;88.77;97592.09;1766461;81;21291;-81
2021/01/24 07:22:23;;;;;;;79.75;37.35;;;;;;;2.91;88.42;97596.83;1764413;81;21536;-81
2021/01/24 07:24:53;;;;;;;75.42;37.80;;;;;;;2.92;88.21;97595.48;1752688;82;21296;-81
2021/01/24 07:27:28;;;;;;;80.45;38.38;;;;;;;2.93;88.05;97592.06;1761266;81;21176;-84
2021/01/24 07:29:58;;;;;;;77.00;35.48;;;;;;;2.93;88.09;97585.65;1762432;81;21189;-82
2021/01/24 07:32:28;;;;;;;88.10;38.83;;;;;;;2.93;87.60;97588.21;1764919;81;21292;-81
2021/01/24 07:34:56;;;;;;;85.67;41.77;;;;;;;2.89;87.80;97585.30;1740174;81;21303;-82
2021/01/24 07:37:24;;;;;;;85.57;41.58;;;;;;;2.88;87.70;97591.73;1751667;81;21280;-81
2021/01/24 07:39:53;;;;;;;82.25;40.88;;;;;;;2.89;88.01;97594.28;1768148;80;21181;-81
2021/01/24 07:42:21;;;;;;;81.53;40.73;;;;;;;2.88;88.01;97605.41;1802155;79;21661;-81
2021/01/24 07:44:50;;;;;;;77.10;37.58;;;;;;;2.83;88.04;97603.83;1800360;79;21319;-80
2021/01/24 07:47:18;;;;;;;76.55;35.65;;;;;;;2.81;88.06;97609.42;1803527;79;21276;-81
2021/01/24 07:49:46;;;;;;;84.25;39.25;;;;;;;2.80;87.72;97600.85;1801824;79;21321;-80
2021/01/24 07:52:16;;;;;;;82.75;38.05;;;;;;;2.80;88.30;97597.00;1798889;79;21332;-81
2021/01/24 07:54:44;;;;;;;88.15;39.08;;;;;;;2.81;88.76;97591.02;1800072;79;21161;-80
2021/01/24 07:57:12;;;;;;;77.47;38.38;;;;;;;2.88;87.99;97598.16;1797182;79;21162;-80
2021/01/24 07:59:40;;;;;;;81.90;39.15;;;;;;;2.94;88.64;97601.89;1802688;79;21277;-80
2021/01/24 08:02:12;;;;;;;88.55;39.85;;;;;;;3.02;88.68;97609.45;1800812;79;21780;-80
2021/01/24 08:04:42;;;;;;;87.92;38.23;;;;;;;3.11;88.76;97607.56;1801325;79;21256;-81
2021/01/24 08:07:10;;;;;;;88.90;40.85;;;;;;;3.18;88.05;97618.14;1761987;81;21179;-81
2021/01/24 08:09:39;;;;;;;82.67;40.60;;;;;;;3.25;88.33;97617.57;1759921;81;21176;-82
2021/01/24 08:12:13;;;;;;;80.10;38.10;;;;;;;3.33;88.07;97623.84;1762646;80;21208;-81
2021/01/24 08:14:43;;;;;;;87.75;39.55;;;;;;;3.41;88.08;97621.13;1761952;81;21153;-82
2021/01/24 08:17:15;;;;;;;80.42;37.78;;;;;;;3.51;88.39;97629.05;1758683;81;21634;-78
2021/01/24 08:19:44;;;;;;;77.12;35.10;;;;;;;3.61;88.33;97626.70;1754018;80;21954;-80
2021/01/24 08:22:13;;;;;;;73.15;35.78;;;;;;;3.71;88.07;97630.77;1803721;79;21698;-80
2021/01/24 08:24:42;;;;;;;69.12;33.83;;;;;;;3.85;88.30;97634.33;1804035;79;21264;-81
2021/01/24 08:27:11;;;;;;;63.92;31.77;;;;;;;4.00;88.16;97631.88;1762495;81;21188;-80
2021/01/24 08:29:38;;;;;;;65.70;29.02;;;;;;;4.19;88.09;97640.02;1759906;81;21193;-80
2021/01/24 08:32:08;;;;;;;71.22;34.83;;;;;;;4.33;87.81;97644.39;1760340;80;21161;-81
2021/01/24 08:34:36;;;;;;;71.25;34.70;;;;;;;4.50;87.69;97638.02;1756579;81;21125;-80
2021/01/24 08:37:05;;;;;;;67.42;33.02;;;;;;;4.64;87.43;97645.41;1761546;80;21189;-80
2021/01/24 08:39:33;;;;;;;66.62;33.73;;;;;;;4.78;87.40;97651.89;1792109;80;21817;-79
2021/01/24 08:42:05;;;;;;;72.50;36.70;;;;;;;4.90;87.30;97646.05;1764120;80;21195;-79
2021/01/24 08:44:33;;;;;;;73.20;36.20;;;;;;;5.03;87.13;97647.40;1757810;81;21203;-81
2021/01/24 08:47:05;;;;;;;67.50;37.48;;;;;;;5.15;86.90;97640.66;1789165;80;21196;-81
2021/01/24 08:49:35;;;;;;;75.32;38.55;;;;;;;5.25;86.51;97645.13;1802048;79;21756;-80
2021/01/24 08:52:04;;;;;;;71.60;39.95;;;;;;;5.32;86.25;97642.77;1802335;79;21304;-80
2021/01/24 08:54:34;;;;;;;68.60;34.92;;;;;;;5.41;86.08;97646.81;1764478;81;21177;-80
2021/01/24 08:57:14;;;;;;;63.02;32.23;;;;;;;5.45;85.91;97642.01;1747780;81;21161;-81
2021/01/24 08:59:54;;;;;;;61.35;29.82;;;;;;;5.49;85.74;97638.45;1761118;81;21132;-80
2021/01/24 09:02:34;;;;;;;67.15;29.27;;;;;;;5.46;85.14;97641.55;1760236;81;21189;-78
2021/01/24 09:05:07;;;;;;;57.00;29.40;;;;;;;5.46;85.11;97645.42;1730168;81;21176;-81
2021/01/24 09:07:48;;;;;;;60.33;27.48;;;;;;;5.58;85.28;97650.23;1803105;78;23104;-80
2021/01/24 09:10:32;;;;;;;51.23;25.48;;;;;;;5.58;85.35;97649.77;1808326;79;22123;-81
2021/01/24 09:13:04;;;;;;;47.60;24.45;;;;;;;5.63;85.49;97644.94;1806856;79;21121;-82
2021/01/24 09:15:33;;;;;;;41.63;22.42;;;;;;;5.70;85.89;97651.16;1810752;79;21292;-81
2021/01/24 09:18:03;;;;;;;40.35;19.67;;;;;;;5.78;85.90;97650.95;1810184;79;21307;-81
2021/01/24 09:20:31;;;;;;;34.10;18.23;;;;;;;5.87;85.94;97644.66;1808287;79;21987;-80
2021/01/24 09:22:59;;;;;;;43.00;19.07;;;;;;;5.89;85.77;97648.91;1808668;79;21126;-81
2021/01/24 09:25:27;;;;;;;43.68;18.75;;;;;;;5.97;85.87;97642.27;1810022;79;22087;-83
2021/01/24 09:27:55;;;;;;;36.25;19.92;;;;;;;6.06;85.89;97645.84;1807728;79;21146;-83
2021/01/24 09:30:24;;;;;;;36.15;19.35;;;;;;;6.13;85.56;97651.23;1812041;79;21280;-81
2021/01/24 09:32:52;;;;;;;36.30;18.37;;;;;;;6.20;84.83;97645.88;1814162;79;21237;-82
2021/01/24 09:35:20;;;;;;;38.63;19.50;;;;;;;6.29;85.10;97636.13;1815741;79;21311;-80
2021/01/24 09:37:48;;;;;;;34.45;19.10;;;;;;;6.40;84.87;97633.64;1810512;79;21252;-81
2021/01/24 09:40:16;;;;;;;35.03;17.65;;;;;;;6.52;84.79;97637.95;1811046;79;22542;-81
2021/01/24 09:42:44;;;;;;;32.00;16.45;;;;;;;6.61;84.21;97636.00;1810222;79;21303;-81
2021/01/24 09:45:13;;;;;;;30.48;15.80;;;;;;;6.75;83.60;97632.52;1813056;79;21256;-81
2021/01/24 09:47:41;;;;;;;31.82;15.50;;;;;;;6.85;83.30;97638.22;1811363;79;21558;-81
2021/01/24 09:50:10;;;;;;;29.67;15.53;;;;;;;6.96;83.57;97635.67;1816844;79;21249;-81
2021/01/24 09:52:38;;;;;;;31.73;14.43;;;;;;;7.06;83.58;97636.20;1813781;79;21271;-82
2021/01/24 09:55:07;;;;;;;31.17;16.00;;;;;;;7.13;83.59;97631.66;1813221;79;21248;-80
2021/01/24 09:57:37;;;;;;;23.80;13.40;;;;;;;7.19;83.36;97634.48;1815256;79;21616;-81
2021/01/24 10:00:07;;;;;;;31.70;14.23;;;;;;;7.29;83.23;97625.51;1813389;79;21287;-81
2021/01/24 10:02:45;;;;;;;30.23;14.07;;;;;;;7.44;83.09;97615.05;1796095;78;22975;-84
2021/01/24 10:05:13;;;;;;;28.10;15.55;;;;;;;7.48;81.95;97617.50;1730340;82;21469;-79
2021/01/24 10:07:41;;;;;;;34.45;15.10;;;;;;;7.61;82.76;97615.29;1746739;81;21145;-81
2021/01/24 10:10:10;;;;;;;28.10;16.45;;;;;;;7.65;82.88;97614.28;1789710;79;21303;-81
2021/01/24 10:12:38;;;;;;;28.90;14.90;;;;;;;7.73;82.51;97610.95;1793715;79;21585;-80
2021/01/24 10:15:08;;;;;;;25.20;13.50;;;;;;;7.87;82.81;97608.30;1798271;79;21478;-82
2021/01/24 10:17:36;;;;;;;25.02;11.85;;;;;;;7.97;82.53;97605.30;1791533;79;21204;-82
2021/01/24 10:20:06;;;;;;;21.12;10.80;;;;;;;8.13;81.24;97602.95;1794925;79;21315;-82
2021/01/24 10:22:34;;;;;;;24.43;11.35;;;;;;;8.20;78.40;97597.53;1795081;79;21132;-81
2021/01/24 10:25:01;;;;;;;21.42;11.12;;;;;;;8.34;79.83;97603.03;1789461;79;21688;-81
2021/01/24 10:27:30;;;;;;;18.35;10.32;;;;;;;8.43;79.19;97592.31;1793210;79;21332;-81
2021/01/24 10:29:58;;;;;;;24.55;12.50;;;;;;;8.52;77.60;97594.55;1786899;79;21272;-82
2021/01/24 10:32:26;;;;;;;25.25;13.28;;;;;;;8.67;79.47;97588.34;1790907;79;21185;-82
2021/01/24 10:34:55;;;;;;;19.15;10.70;;;;;;;8.81;79.53;97584.71;1792635;79;21551;-86
2021/01/24 10:37:23;;;;;;;22.07;11.88;;;;;;;8.92;77.72;97590.76;1792890;79;21165;-83
2021/01/24 10:39:51;;;;;;;35.30;17.12;;;;;;;9.08;76.36;97582.70;1795743;79;21145;-84
2021/01/24 10:42:18;;;;;;;23.00;11.80;;;;;;;9.24;77.17;97585.47;1796279;79;21161;-82
2021/01/24 10:44:46;;;;;;;18.77;8.50;;;;;;;9.44;76.69;97592.84;1793103;79;21180;-85
2021/01/24 10:47:14;;;;;;;15.05;7.53;;;;;;;9.62;74.15;97586.81;1803384;78;22116;-83
2021/01/24 10:49:42;;;;;;;15.78;8.00;;;;;;;9.86;76.27;97578.82;1795256;79;21157;-83
2021/01/24 10:52:10;;;;;;;15.80;7.00;;;;;;;10.08;74.66;97584.68;1794897;79;21153;-84
2021/01/24 10:54:38;;;;;;;13.93;6.78;;;;;;;10.25;69.45;97576.56;1791966;79;21153;-83
2021/01/24 10:57:06;;;;;;;12.53;6.12;;;;;;;10.45;69.65;97567.38;1793007;79;21724;-80
2021/01/24 10:59:33;;;;;;;13.15;6.20;;;;;;;10.65;71.84;97560.36;1794084;79;21144;-81
2021/01/24 11:02:01;;;;;;;9.90;4.15;;;;;;;10.87;72.02;97564.84;1800236;79;21189;-83
2021/01/24 11:04:33;;;;;;;12.00;4.55;;;;;;;11.13;63.40;97573.08;1800014;79;21705;-85
2021/01/24 11:07:01;;;;;;;14.73;5.03;;;;;;;11.44;68.45;97573.62;1801325;79;21154;-82
2021/01/24 11:09:28;;;;;;;13.50;4.58;;;;;;;11.70;64.67;97570.09;1793231;79;21544;-81
2021/01/24 11:11:56;;;;;;;8.05;4.00;;;;;;;11.85;63.09;97571.84;1798679;79;21471;-83
2021/01/24 11:14:24;;;;;;;11.55;4.55;;;;;;;12.00;66.14;97569.38;1793923;79;21578;-81
2021/01/24 11:16:52;;;;;;;8.75;4.22;;;;;;;12.01;61.04;97570.58;1800953;79;21141;-82
2021/01/24 11:19:20;;;;;;;14.68;4.72;;;;;;;12.05;58.63;97566.88;1791684;79;21160;-80
2021/01/24 11:21:48;;;;;;;7.72;4.12;;;;;;;12.25;58.97;97560.55;1798365;79;21161;-81
2021/01/24 11:24:18;;;;;;;8.85;3.75;;;;;;;12.36;57.33;97556.52;1797973;79;21914;-80
2021/01/24 11:26:46;;;;;;;8.30;3.85;;;;;;;12.53;57.98;97553.33;1792330;79;21180;-80
2021/01/24 11:29:14;;;;;;;9.13;4.55;;;;;;;12.73;61.33;97548.70;1795753;79;21491;-78
2021/01/24 11:31:42;;;;;;;15.23;4.40;;;;;;;12.94;60.35;97540.92;1794696;79;22015;-82
2021/01/24 11:34:11;;;;;;;8.10;3.12;;;;;;;13.11;60.48;97542.98;1789400;79;21161;-79
2021/01/24 11:36:39;;;;;;;5.83;1.85;;;;;;;13.16;52.81;97543.55;1789879;79;21137;-81
2021/01/24 11:39:06;;;;;;;5.30;1.75;;;;;;;13.18;46.45;97542.99;1800171;79;21718;-81